createdAt,value
2023-01-11T00:00:26.964Z,1.90
2023-01-11T00:01:53.076Z,1.80
2023-01-11T00:03:15.546Z,1.80
2023-01-11T00:04:37.592Z,1.70
2023-01-11T00:06:00.589Z,1.50
2023-01-11T00:07:22.444Z,1.48
2023-01-11T00:08:44.051Z,1.38
2023-01-11T00:10:06.258Z,1.80
2023-01-11T00:11:28.191Z,1.65
2023-01-11T00:12:50.317Z,2.08
2023-01-11T00:14:12.261Z,1.90
2023-01-11T00:15:35.011Z,1.88
2023-01-11T00:16:59.692Z,1.80
2023-01-11T00:18:21.744Z,1.65
2023-01-11T00:19:44.071Z,1.83
2023-01-11T00:21:07.423Z,1.50
2023-01-11T00:22:29.418Z,1.23
2023-01-11T00:23:51.289Z,1.83
2023-01-11T00:25:13.254Z,1.38
2023-01-11T00:26:35.243Z,1.70
2023-01-11T00:27:57.493Z,1.38
2023-01-11T00:29:19.211Z,1.40
2023-01-11T00:30:41.216Z,1.60
2023-01-11T00:32:02.931Z,1.85
2023-01-11T00:33:24.844Z,1.30
2023-01-11T00:34:47.029Z,1.45
2023-01-11T00:36:09.648Z,1.65
2023-01-11T00:37:31.549Z,1.98
2023-01-11T00:38:54.458Z,1.10
2023-01-11T00:40:16.243Z,1.23
2023-01-11T00:41:56.334Z,1.40
2023-01-11T00:43:36.552Z,1.90
2023-01-11T00:45:16.532Z,1.13
2023-01-11T00:48:18.293Z,1.17
2023-01-11T00:49:40.552Z,1.33
2023-01-11T00:51:02.515Z,1.20
2023-01-11T00:52:24.409Z,1.00
2023-01-11T00:53:48.547Z,1.48
2023-01-11T00:55:10.355Z,1.58
2023-01-11T00:56:32.397Z,1.50
2023-01-11T00:57:54.428Z,1.52
2023-01-11T00:59:16.036Z,1.63
2023-01-11T01:00:37.932Z,1.10
2023-01-11T01:02:00.251Z,1.23
2023-01-11T01:03:21.953Z,1.23
2023-01-11T01:04:43.714Z,1.08
2023-01-11T01:06:05.693Z,1.42
2023-01-11T01:07:27.805Z,1.15
2023-01-11T01:08:49.654Z,1.17
2023-01-11T01:10:13.425Z,1.10
2023-01-11T01:11:35.036Z,1.52
2023-01-11T01:13:14.928Z,1.10
2023-01-11T01:14:37.384Z,1.10
2023-01-11T01:15:59.482Z,1.20
2023-01-11T01:17:21.125Z,1.58
2023-01-11T01:18:43.192Z,1.20
2023-01-11T01:20:05.404Z,1.25
2023-01-11T01:21:28.067Z,1.38
2023-01-11T01:22:49.788Z,1.15
2023-01-11T01:24:11.805Z,1.30
2023-01-11T01:25:36.085Z,1.40
2023-01-11T01:26:58.617Z,1.20
2023-01-11T01:28:22.258Z,1.02
2023-01-11T01:29:47.616Z,1.20
2023-01-11T01:31:09.646Z,1.23
2023-01-11T01:32:31.459Z,1.27
2023-01-11T01:33:53.314Z,1.10
2023-01-11T01:35:15.347Z,1.17
2023-01-11T01:36:37.321Z,1.10
2023-01-11T01:37:59.281Z,1.20
2023-01-11T01:39:21.188Z,1.00
2023-01-11T01:40:45.084Z,1.40
2023-01-11T01:42:12.639Z,1.48
2023-01-11T01:44:05.316Z,1.42
2023-01-11T01:45:28.886Z,1.27
2023-01-11T01:46:51.048Z,1.02
2023-01-11T01:48:16.955Z,1.17
2023-01-11T01:49:39.269Z,1.10
2023-01-11T01:51:01.512Z,1.80
2023-01-11T01:52:29.484Z,2.70
2023-01-11T01:53:56.061Z,2.83
2023-01-11T01:55:26.749Z,2.00
2023-01-11T01:57:00.423Z,1.67
2023-01-11T01:58:28.467Z,1.48
2023-01-11T01:59:52.846Z,1.30
2023-01-11T02:01:38.818Z,1.55
2023-01-11T02:03:02.230Z,1.20
2023-01-11T02:04:38.763Z,1.55
2023-01-11T02:06:00.758Z,2.00
2023-01-11T02:07:32.127Z,2.05
2023-01-11T02:09:06.651Z,2.00
2023-01-11T02:10:29.026Z,1.92
2023-01-11T02:11:51.358Z,1.77
2023-01-11T02:13:14.486Z,1.50
2023-01-11T02:14:40.137Z,1.80
2023-01-11T02:16:08.064Z,1.42
2023-01-11T02:17:32.599Z,1.38
2023-01-11T02:18:55.706Z,1.45
2023-01-11T02:20:48.214Z,1.40
2023-01-11T02:22:47.407Z,1.55
2023-01-11T02:24:46.639Z,1.70
2023-01-11T02:26:31.133Z,1.50
2023-01-11T02:28:23.717Z,1.35
2023-01-11T02:30:13.830Z,1.23
2023-01-11T02:31:55.985Z,1.20
2023-01-11T02:33:39.378Z,1.20
2023-01-11T02:35:30.153Z,0.98
2023-01-11T02:37:49.768Z,0.98
2023-01-11T02:39:32.961Z,1.10
2023-01-11T02:41:51.607Z,1.00
2023-01-11T02:43:35.193Z,1.30
2023-01-11T02:45:06.097Z,1.60
2023-01-11T02:46:38.292Z,1.67
2023-01-11T02:48:21.553Z,1.90
2023-01-11T02:49:57.092Z,1.65
2023-01-11T02:51:43.289Z,1.75
2023-01-11T02:53:44.837Z,1.60
2023-01-11T02:55:10.416Z,1.92
2023-01-11T02:56:38.273Z,1.70
2023-01-11T02:58:03.007Z,3.17
2023-01-11T02:59:31.563Z,3.75
2023-01-11T03:00:55.941Z,4.15
2023-01-11T03:02:18.214Z,5.22
2023-01-11T03:03:40.298Z,5.07
2023-01-11T03:05:02.059Z,5.80
2023-01-11T03:06:30.753Z,6.57
2023-01-11T03:08:13.998Z,5.93
2023-01-11T03:09:56.220Z,6.00
2023-01-11T03:12:24.165Z,4.88
2023-01-11T03:14:09.677Z,5.05
2023-01-11T03:16:00.419Z,4.68
2023-01-11T03:17:46.428Z,5.45
2023-01-11T03:19:23.776Z,5.40
2023-01-11T03:20:59.727Z,5.43
2023-01-11T03:22:51.170Z,8.13
2023-01-11T03:24:25.757Z,7.55
2023-01-11T03:26:18.216Z,8.02
2023-01-11T03:27:57.528Z,4.47
2023-01-11T03:29:22.200Z,4.28
2023-01-11T03:31:02.316Z,3.97
2023-01-11T03:32:47.631Z,3.42
2023-01-11T03:34:33.803Z,3.03
2023-01-11T03:36:07.607Z,3.22
2023-01-11T03:37:44.662Z,2.67
2023-01-11T03:39:29.159Z,2.03
2023-01-11T03:41:01.239Z,1.80
2023-01-11T03:42:26.168Z,2.28
2023-01-11T03:43:50.161Z,2.55
2023-01-11T03:45:11.723Z,2.33
2023-01-11T03:46:47.238Z,2.30
2023-01-11T03:48:15.316Z,2.83
2023-01-11T03:49:59.929Z,1.95
2023-01-11T03:51:43.451Z,2.20
2023-01-11T03:53:08.165Z,1.92
2023-01-11T03:54:32.847Z,1.92
2023-01-11T03:55:57.750Z,2.05
2023-01-11T03:57:35.844Z,1.92
2023-01-11T03:58:57.975Z,1.60
2023-01-11T04:00:21.735Z,1.40
2023-01-11T04:01:44.420Z,1.30
2023-01-11T04:03:06.669Z,1.70
2023-01-11T04:04:28.786Z,1.70
2023-01-11T04:05:55.028Z,2.22
2023-01-11T04:07:17.059Z,2.20
2023-01-11T04:08:38.871Z,1.98
2023-01-11T04:10:00.457Z,3.35
2023-01-11T04:11:22.143Z,2.65
2023-01-11T04:12:48.082Z,2.88
2023-01-11T04:14:09.905Z,3.55
2023-01-11T04:15:34.722Z,3.70
2023-01-11T04:16:56.420Z,2.35
2023-01-11T04:18:18.280Z,2.00
2023-01-11T04:19:40.210Z,2.50
2023-01-11T04:21:02.121Z,2.38
2023-01-11T04:22:23.816Z,2.08
2023-01-11T04:23:45.588Z,2.17
2023-01-11T04:25:08.905Z,2.55
2023-01-11T04:26:30.693Z,3.20
2023-01-11T04:27:52.821Z,2.45
2023-01-11T04:29:14.580Z,2.85
2023-01-11T04:30:37.298Z,5.93
2023-01-11T04:31:59.271Z,5.82
2023-01-11T04:33:20.949Z,5.43
2023-01-11T04:34:42.664Z,4.57
2023-01-11T04:36:09.922Z,5.40
2023-01-11T04:37:31.698Z,5.72
2023-01-11T04:38:53.322Z,6.35
2023-01-11T04:40:16.192Z,4.55
2023-01-11T04:41:57.351Z,5.15
2023-01-11T04:43:19.165Z,8.63
2023-01-11T04:44:40.762Z,6.88
2023-01-11T04:46:02.699Z,5.80
2023-01-11T04:47:25.567Z,5.13
2023-01-11T04:48:47.458Z,4.05
2023-01-11T04:50:10.150Z,4.07
2023-01-11T04:51:32.088Z,5.07
2023-01-11T04:52:54.273Z,6.85
2023-01-11T04:54:16.784Z,7.28
2023-01-11T04:55:38.957Z,7.15
2023-01-11T04:57:00.925Z,7.68
2023-01-11T04:58:22.881Z,11.38
2023-01-11T04:59:46.889Z,12.88
2023-01-11T05:01:16.925Z,9.88
2023-01-11T05:02:40.027Z,7.72
2023-01-11T05:04:01.837Z,6.68
2023-01-11T05:05:23.865Z,6.70
2023-01-11T05:06:46.001Z,6.70
2023-01-11T05:08:08.000Z,6.50
2023-01-11T05:09:29.569Z,7.47
2023-01-11T05:10:56.259Z,13.00
2023-01-11T05:12:18.096Z,13.45
2023-01-11T05:13:42.542Z,12.55
2023-01-11T05:15:04.727Z,11.27
2023-01-11T05:16:26.994Z,10.73
2023-01-11T05:17:48.698Z,11.25
2023-01-11T05:19:12.318Z,12.90
2023-01-11T05:20:33.739Z,16.08
2023-01-11T05:21:55.723Z,17.80
2023-01-11T05:23:20.301Z,15.60
2023-01-11T05:24:42.466Z,12.45
2023-01-11T05:26:09.719Z,16.58
2023-01-11T05:27:31.457Z,17.58
2023-01-11T05:28:54.465Z,17.08
2023-01-11T05:30:16.404Z,14.35
2023-01-11T05:31:39.639Z,14.35
2023-01-11T05:33:02.421Z,17.75
2023-01-11T05:34:23.820Z,14.70
2023-01-11T05:35:45.790Z,11.93
2023-01-11T05:37:07.640Z,12.82
2023-01-11T05:38:29.789Z,11.35
2023-01-11T05:39:51.567Z,11.50
2023-01-11T05:41:14.155Z,11.48
2023-01-11T05:42:35.864Z,10.25
2023-01-11T05:44:16.179Z,10.73
2023-01-11T05:45:41.193Z,10.40
2023-01-11T05:47:04.273Z,11.45
2023-01-11T05:48:26.840Z,13.93
2023-01-11T05:49:48.434Z,13.55
2023-01-11T05:51:10.314Z,17.15
2023-01-11T05:52:32.361Z,19.90
2023-01-11T05:53:54.154Z,22.58
2023-01-11T05:55:16.298Z,20.15
2023-01-11T05:56:38.513Z,22.58
2023-01-11T05:58:00.699Z,23.02
2023-01-11T05:59:22.611Z,25.95
2023-01-11T06:00:47.205Z,17.77
2023-01-11T06:02:09.113Z,18.27
2023-01-11T06:03:31.061Z,15.82
2023-01-11T06:04:54.922Z,15.68
2023-01-11T06:06:18.717Z,13.57
2023-01-11T06:07:40.715Z,19.55
2023-01-11T06:09:02.677Z,19.27
2023-01-11T06:10:24.366Z,18.95
2023-01-11T06:11:46.457Z,14.07
2023-01-11T06:13:26.999Z,14.75
2023-01-11T06:14:48.840Z,17.38
2023-01-11T06:16:12.556Z,16.95
2023-01-11T06:17:34.237Z,16.75
2023-01-11T06:18:56.116Z,21.00
2023-01-11T06:20:18.167Z,19.85
2023-01-11T06:21:39.966Z,27.17
2023-01-11T06:23:01.744Z,25.80
2023-01-11T06:24:23.505Z,23.50
2023-01-11T06:25:46.193Z,23.75
2023-01-11T06:27:07.830Z,28.60
2023-01-11T06:28:29.731Z,29.98
2023-01-11T06:29:51.309Z,26.45
2023-01-11T06:31:16.061Z,21.80
2023-01-11T06:32:38.628Z,19.52
2023-01-11T06:34:00.566Z,17.92
2023-01-11T06:35:22.376Z,16.15
2023-01-11T06:36:44.376Z,15.20
2023-01-11T06:38:07.485Z,18.15
2023-01-11T06:39:29.240Z,16.42
2023-01-11T06:41:00.419Z,15.85
2023-01-11T06:42:22.008Z,15.25
2023-01-11T06:43:43.771Z,15.32
2023-01-11T06:45:06.180Z,14.35
2023-01-11T06:46:29.069Z,12.27
2023-01-11T06:47:51.037Z,12.93
2023-01-11T06:49:13.009Z,32.45
2023-01-11T06:50:34.951Z,28.42
2023-01-11T06:51:56.735Z,26.40
2023-01-11T06:53:18.898Z,19.75
2023-01-11T06:54:40.588Z,13.82
2023-01-11T06:56:02.660Z,12.77
2023-01-11T06:57:24.443Z,9.10
2023-01-11T06:58:47.689Z,9.77
2023-01-11T07:00:11.150Z,10.13
2023-01-11T07:01:33.236Z,10.07
2023-01-11T07:02:54.954Z,15.98
2023-01-11T07:04:18.751Z,20.98
2023-01-11T07:05:42.264Z,18.15
2023-01-11T07:07:03.949Z,19.80
2023-01-11T07:08:26.260Z,17.00
2023-01-11T07:09:47.913Z,19.08
2023-01-11T07:11:09.822Z,21.40
2023-01-11T07:12:31.812Z,19.58
2023-01-11T07:13:53.664Z,23.20
2023-01-11T07:15:15.873Z,18.63
2023-01-11T07:16:37.914Z,20.38
2023-01-11T07:18:00.864Z,23.95
2023-01-11T07:19:22.841Z,23.13
2023-01-11T07:20:45.070Z,18.92
2023-01-11T07:22:07.157Z,23.52
2023-01-11T07:23:28.678Z,16.92
2023-01-11T07:24:51.113Z,16.75
2023-01-11T07:26:14.317Z,16.58
2023-01-11T07:27:36.129Z,21.30
2023-01-11T07:28:58.191Z,17.83
2023-01-11T07:30:20.305Z,17.00
2023-01-11T07:31:42.329Z,17.85
2023-01-11T07:33:06.386Z,18.60
2023-01-11T07:34:28.060Z,18.15
2023-01-11T07:35:50.291Z,16.80
2023-01-11T07:37:29.201Z,17.83
2023-01-11T07:38:51.356Z,15.45
2023-01-11T07:40:13.825Z,15.32
2023-01-11T07:41:54.430Z,18.05
2023-01-11T07:43:23.329Z,18.02
2023-01-11T07:44:45.514Z,31.88
2023-01-11T07:46:07.505Z,47.75
2023-01-11T07:47:29.161Z,57.33
2023-01-11T07:48:50.885Z,36.05
2023-01-11T07:50:12.736Z,41.03
2023-01-11T07:51:34.409Z,63.78
2023-01-11T07:52:56.010Z,56.95
2023-01-11T07:54:18.357Z,43.30
2023-01-11T07:55:40.781Z,39.60
2023-01-11T07:57:02.438Z,42.88
2023-01-11T07:58:24.776Z,45.88
2023-01-11T07:59:46.762Z,45.00
2023-01-11T08:01:08.660Z,31.48
2023-01-11T08:02:30.777Z,41.22
2023-01-11T08:03:52.774Z,38.10
2023-01-11T08:05:14.651Z,35.65
2023-01-11T08:06:36.493Z,32.50
2023-01-11T08:07:58.753Z,27.75
2023-01-11T08:09:20.386Z,24.50
2023-01-11T08:10:42.287Z,22.77
2023-01-11T08:12:22.730Z,21.08
2023-01-11T08:14:02.717Z,19.48
2023-01-11T08:16:46.163Z,20.05
2023-01-11T08:18:08.464Z,19.83
2023-01-11T08:19:30.250Z,21.38
2023-01-11T08:20:54.949Z,18.80
2023-01-11T08:22:18.202Z,17.42
2023-01-11T08:23:39.789Z,19.65
2023-01-11T08:25:01.811Z,19.98
2023-01-11T08:26:24.648Z,17.65
2023-01-11T08:27:46.806Z,17.20
2023-01-11T08:29:08.545Z,16.17
2023-01-11T08:30:31.190Z,15.55
2023-01-11T08:31:53.155Z,15.68
2023-01-11T08:33:15.085Z,17.38
2023-01-11T08:34:37.032Z,21.02
2023-01-11T08:35:58.748Z,27.27
2023-01-11T08:37:20.681Z,26.35
2023-01-11T08:38:44.908Z,22.38
2023-01-11T08:40:07.238Z,16.50
2023-01-11T08:41:28.873Z,19.77
2023-01-11T08:42:54.032Z,20.50
2023-01-11T08:44:22.341Z,22.45
2023-01-11T08:45:55.061Z,19.02
2023-01-11T08:47:16.875Z,20.38
2023-01-11T08:48:38.697Z,16.80
2023-01-11T08:50:00.826Z,21.45
2023-01-11T08:51:23.095Z,22.98
2023-01-11T08:52:45.144Z,17.48
2023-01-11T08:54:10.578Z,17.27
2023-01-11T08:55:32.506Z,16.40
2023-01-11T08:56:55.271Z,14.60
2023-01-11T08:58:17.566Z,16.48
2023-01-11T08:59:40.724Z,15.13
2023-01-11T09:01:04.270Z,24.05
2023-01-11T09:02:26.097Z,25.10
2023-01-11T09:03:48.192Z,23.60
2023-01-11T09:05:10.200Z,38.22
2023-01-11T09:06:32.211Z,19.55
2023-01-11T09:07:57.530Z,13.88
2023-01-11T09:09:19.608Z,17.08
2023-01-11T09:10:41.297Z,18.17
2023-01-11T09:12:05.833Z,18.33
2023-01-11T09:13:28.200Z,16.70
2023-01-11T09:14:50.065Z,15.10
2023-01-11T09:16:11.764Z,14.75
2023-01-11T09:17:33.824Z,14.98
2023-01-11T09:18:55.851Z,11.90
2023-01-11T09:20:18.010Z,13.48
2023-01-11T09:21:39.703Z,18.73
2023-01-11T09:23:01.769Z,24.55
2023-01-11T09:24:23.549Z,39.22
2023-01-11T09:25:45.525Z,50.30
2023-01-11T09:27:07.419Z,36.33
2023-01-11T09:28:29.254Z,17.67
2023-01-11T09:29:51.281Z,18.23
2023-01-11T09:31:13.348Z,19.20
2023-01-11T09:32:35.281Z,23.02
2023-01-11T09:33:57.178Z,21.05
2023-01-11T09:35:19.394Z,19.15
2023-01-11T09:36:41.412Z,19.25
2023-01-11T09:38:02.942Z,15.75
2023-01-11T09:39:27.618Z,17.45
2023-01-11T09:41:36.765Z,15.80
2023-01-11T09:43:01.476Z,9.73
2023-01-11T09:44:26.793Z,13.98
2023-01-11T09:45:51.931Z,13.27
2023-01-11T09:47:16.601Z,11.88
2023-01-11T09:48:43.586Z,11.70
2023-01-11T09:50:13.158Z,12.02
2023-01-11T09:53:07.914Z,11.68
2023-01-11T09:54:29.939Z,10.60
2023-01-11T09:55:53.019Z,12.00
2023-01-11T09:57:23.893Z,11.70
2023-01-11T09:59:20.871Z,13.60
2023-01-11T10:01:07.007Z,20.23
2023-01-11T10:02:47.229Z,23.80
2023-01-11T10:04:45.245Z,20.73
2023-01-11T10:06:36.370Z,16.17
2023-01-11T10:18:27.592Z,11.77
2023-01-11T10:18:32.239Z,11.40
2023-01-11T10:19:41.117Z,11.65
2023-01-11T10:21:28.861Z,16.17
2023-01-11T10:23:06.375Z,14.20
2023-01-11T10:24:29.481Z,15.65
2023-01-11T10:25:55.423Z,14.00
2023-01-11T10:27:36.300Z,17.23
2023-01-11T10:29:35.166Z,22.65
2023-01-11T10:30:57.891Z,40.67
2023-01-11T10:32:45.617Z,28.05
2023-01-11T10:34:30.475Z,16.33
2023-01-11T10:36:22.835Z,13.55
2023-01-11T10:38:04.141Z,13.93
2023-01-11T10:40:19.618Z,15.60
2023-01-11T10:42:05.839Z,20.35
2023-01-11T10:43:29.497Z,19.60
2023-01-11T10:45:00.513Z,17.40
2023-01-11T10:46:27.125Z,33.33
2023-01-11T10:48:04.304Z,21.83
2023-01-11T10:49:55.515Z,15.82
2023-01-11T10:51:27.125Z,18.20
2023-01-11T10:53:00.125Z,16.30
2023-01-11T10:54:27.623Z,12.00
2023-01-11T10:56:07.234Z,11.65
2023-01-11T10:58:01.519Z,16.23
2023-01-11T10:59:58.758Z,15.75
2023-01-11T11:01:32.990Z,23.20
2023-01-11T11:03:06.464Z,17.60
2023-01-11T11:04:31.197Z,32.08
2023-01-11T11:06:13.124Z,24.45
2023-01-11T11:07:50.943Z,16.17
2023-01-11T11:09:18.601Z,13.18
2023-01-11T11:11:00.886Z,26.73
2023-01-11T11:12:32.536Z,34.47
2023-01-11T11:14:17.003Z,22.08
2023-01-11T11:15:56.320Z,21.52
2023-01-11T11:17:24.283Z,18.08
2023-01-11T11:18:46.760Z,17.38
2023-01-11T11:20:15.177Z,16.00
2023-01-11T11:21:41.829Z,15.38
2023-01-11T11:23:04.050Z,22.42
2023-01-11T11:25:00.791Z,17.45
2023-01-11T11:26:27.405Z,13.95
2023-01-11T11:27:59.601Z,15.35
2023-01-11T11:29:29.247Z,19.35
2023-01-11T11:32:30.429Z,17.95
2023-01-11T11:33:52.489Z,25.30
2023-01-11T11:35:36.438Z,18.83
2023-01-11T11:37:00.676Z,14.48
2023-01-11T11:38:30.134Z,16.80
2023-01-11T11:39:53.982Z,19.75
2023-01-11T11:41:17.531Z,19.50
2023-01-11T11:42:39.422Z,21.38
2023-01-11T11:44:15.784Z,19.60
2023-01-11T11:45:49.752Z,22.77
2023-01-11T11:47:17.992Z,22.00
2023-01-11T11:48:39.994Z,19.48
2023-01-11T11:50:41.985Z,17.00
2023-01-11T11:52:05.452Z,15.77
2023-01-11T11:53:47.256Z,16.13
2023-01-11T11:55:13.615Z,16.80
2023-01-11T11:56:41.782Z,23.40
2023-01-11T11:58:13.248Z,23.58
2023-01-11T11:59:35.110Z,17.00
2023-01-11T12:00:56.947Z,11.98
2023-01-11T12:02:31.192Z,11.68
2023-01-11T12:04:00.846Z,12.23
2023-01-11T12:05:22.769Z,13.48
2023-01-11T12:06:49.202Z,10.90
2023-01-11T12:08:16.614Z,13.15
2023-01-11T12:09:43.212Z,19.73
2023-01-11T12:11:08.175Z,24.35
2023-01-11T12:12:31.699Z,16.85
2023-01-11T12:14:10.887Z,16.92
2023-01-11T12:15:34.872Z,19.85
2023-01-11T12:16:58.978Z,27.23
2023-01-11T12:18:42.502Z,18.48
2023-01-11T12:20:24.441Z,44.25
2023-01-11T12:21:46.109Z,58.25
2023-01-11T12:23:24.323Z,39.83
2023-01-11T12:24:47.750Z,30.38
2023-01-11T12:26:22.888Z,31.10
2023-01-11T12:28:09.175Z,22.77
2023-01-11T12:29:48.296Z,21.00
2023-01-11T12:31:15.019Z,21.45
2023-01-11T12:33:09.285Z,18.05
2023-01-11T12:35:10.150Z,21.90
2023-01-11T12:36:38.043Z,23.35
2023-01-11T12:38:22.155Z,20.55
2023-01-11T12:40:10.405Z,18.85
2023-01-11T12:42:22.593Z,20.23
2023-01-11T12:43:44.270Z,18.10
2023-01-11T12:45:26.870Z,23.85
2023-01-11T12:47:04.194Z,23.27
2023-01-11T12:48:57.928Z,23.50
2023-01-11T12:52:41.429Z,32.05
2023-01-11T12:54:30.925Z,20.33
2023-01-11T12:56:11.601Z,19.95
2023-01-11T12:58:15.106Z,24.08
2023-01-11T13:00:07.696Z,19.17
2023-01-11T13:01:43.528Z,20.92
2023-01-11T13:03:53.089Z,35.20
2023-01-11T13:05:44.012Z,22.95
2023-01-11T13:07:24.468Z,25.63
2023-01-11T13:08:49.671Z,24.38
2023-01-11T13:10:11.728Z,23.88
2023-01-11T13:11:52.385Z,30.30
2023-01-11T13:13:27.000Z,25.02
2023-01-11T13:15:05.649Z,26.55
2023-01-11T13:16:58.452Z,19.52
2023-01-11T13:18:30.001Z,18.90
2023-01-11T13:20:22.550Z,17.70
2023-01-11T13:21:53.388Z,23.95
2023-01-11T13:23:36.396Z,25.13
2023-01-11T13:25:01.720Z,23.55
2023-01-11T13:26:28.975Z,23.67
2023-01-11T13:27:54.512Z,23.23
2023-01-11T13:29:43.866Z,27.05
2023-01-11T13:31:09.441Z,22.75
2023-01-11T13:32:37.509Z,21.05
2023-01-11T13:34:14.257Z,21.98
2023-01-11T13:35:50.034Z,29.40
2023-01-11T13:37:37.090Z,46.65
2023-01-11T13:39:20.864Z,28.48
2023-01-11T13:40:51.247Z,36.78
2023-01-11T13:42:29.820Z,32.28
2023-01-11T13:44:06.301Z,26.88
2023-01-11T13:45:48.378Z,26.77
2023-01-11T13:47:20.509Z,28.25
2023-01-11T13:49:00.549Z,30.50
2023-01-11T13:50:54.531Z,30.52
2023-01-11T13:52:20.613Z,26.27
2023-01-11T13:54:23.615Z,24.33
2023-01-11T13:55:57.271Z,27.33
2023-01-11T13:57:38.245Z,29.17
2023-01-11T13:59:07.614Z,29.33
2023-01-11T14:00:51.212Z,26.65
2023-01-11T14:02:41.619Z,24.30
2023-01-11T14:04:11.158Z,19.27
2023-01-11T14:05:48.372Z,23.25
2023-01-11T14:07:31.984Z,18.90
2023-01-11T14:09:18.767Z,17.95
2023-01-11T14:11:06.378Z,18.33
2023-01-11T14:12:33.983Z,20.80
2023-01-11T14:14:23.550Z,28.30
2023-01-11T14:16:01.116Z,29.40
2023-01-11T14:18:05.923Z,27.58
2023-01-11T14:19:53.134Z,24.83
2023-01-11T14:21:34.143Z,28.88
2023-01-11T14:23:14.149Z,29.73
2023-01-11T14:26:27.179Z,25.58
2023-01-11T14:27:51.797Z,31.52
2023-01-11T14:29:25.694Z,33.53
2023-01-11T14:30:55.126Z,32.15
2023-01-11T14:32:35.418Z,32.60
2023-01-11T14:34:09.333Z,30.10
2023-01-11T14:35:52.667Z,26.33
2023-01-11T14:37:39.324Z,23.33
2023-01-11T14:39:13.006Z,27.45
2023-01-11T14:40:53.912Z,25.23
2023-01-11T14:43:00.998Z,25.83
2023-01-11T14:44:56.969Z,28.52
2023-01-11T14:46:55.654Z,32.53
2023-01-11T14:48:26.346Z,31.27
2023-01-11T14:49:50.863Z,28.35
2023-01-11T14:51:25.914Z,35.13
2023-01-11T14:52:53.663Z,33.83
2023-01-11T14:54:38.444Z,30.38
2023-01-11T14:56:00.350Z,33.55
2023-01-11T14:57:38.209Z,31.77
2023-01-11T14:59:22.649Z,24.98
2023-01-11T15:00:44.598Z,30.33
2023-01-11T15:02:07.839Z,28.42
2023-01-11T15:03:42.228Z,33.83
2023-01-11T15:05:05.951Z,45.03
2023-01-11T15:06:49.086Z,42.40
2023-01-11T15:08:13.749Z,37.58
2023-01-11T15:09:46.067Z,33.80
2023-01-11T15:11:35.227Z,32.45
2023-01-11T15:13:07.596Z,31.08
2023-01-11T15:14:32.868Z,29.90
2023-01-11T15:16:31.025Z,27.20
2023-01-11T15:18:15.291Z,29.67
2023-01-11T15:19:41.794Z,31.58
2023-01-11T15:21:07.829Z,28.63
2023-01-11T15:22:33.420Z,29.60
2023-01-11T15:23:58.839Z,31.70
2023-01-11T15:25:35.164Z,31.75
2023-01-11T15:26:59.246Z,33.47
2023-01-11T15:28:57.768Z,33.00
2023-01-11T15:30:31.562Z,34.30
2023-01-11T15:32:02.176Z,35.10
2023-01-11T15:33:25.524Z,35.63
2023-01-11T15:34:49.222Z,37.53
2023-01-11T15:36:11.717Z,37.00
2023-01-11T15:37:58.889Z,36.35
2023-01-11T15:39:38.406Z,33.35
2023-01-11T15:41:24.234Z,36.08
2023-01-11T15:43:10.662Z,34.58
2023-01-11T15:44:58.519Z,38.42
2023-01-11T15:46:54.243Z,49.65
2023-01-11T15:48:56.717Z,57.38
2023-01-11T15:50:36.450Z,57.53
2023-01-11T15:52:13.620Z,71.82
2023-01-11T15:54:14.965Z,62.28
2023-01-11T15:55:48.291Z,83.70
2023-01-11T15:57:44.520Z,74.22
2023-01-11T15:59:43.618Z,87.35
2023-01-11T16:01:19.472Z,71.43
2023-01-11T16:02:59.460Z,61.72
2023-01-11T16:04:28.421Z,63.40
2023-01-11T16:06:16.367Z,60.85
2023-01-11T16:08:18.644Z,55.17
2023-01-11T16:09:55.473Z,61.80
2023-01-11T16:11:38.477Z,64.45
2023-01-11T16:13:29.839Z,62.20
2023-01-11T16:15:28.461Z,64.07
2023-01-11T16:16:52.721Z,65.82
2023-01-11T16:18:21.867Z,65.45
2023-01-11T16:19:46.743Z,71.85
2023-01-11T16:21:18.170Z,72.47
2023-01-11T16:22:40.357Z,66.70
2023-01-11T16:24:17.791Z,64.95
2023-01-11T16:25:42.196Z,68.03
2023-01-11T16:27:06.216Z,70.72
2023-01-11T16:28:28.862Z,64.93
2023-01-11T16:29:51.840Z,72.13
2023-01-11T16:31:13.784Z,75.72
2023-01-11T16:32:35.840Z,80.97
2023-01-11T16:34:07.231Z,78.05
2023-01-11T16:35:28.851Z,78.38
2023-01-11T16:36:50.798Z,84.05
2023-01-11T16:38:22.506Z,69.38
2023-01-11T16:39:44.556Z,66.22
2023-01-11T16:41:08.871Z,67.43
2023-01-11T16:42:35.612Z,60.10
2023-01-11T16:44:04.909Z,72.85
2023-01-11T16:45:39.672Z,89.15
2023-01-11T16:47:19.000Z,90.05
2023-01-11T16:48:40.623Z,95.47
2023-01-11T16:50:14.782Z,88.60
2023-01-11T16:51:36.837Z,85.50
2023-01-11T16:53:01.069Z,75.80
2023-01-11T16:54:31.556Z,70.50
2023-01-11T16:56:05.563Z,79.93
2023-01-11T16:57:39.464Z,78.60
2023-01-11T16:59:21.555Z,62.83
2023-01-11T17:00:52.333Z,73.75
2023-01-11T17:02:32.908Z,79.57
2023-01-11T17:03:55.795Z,78.05
2023-01-11T17:05:23.646Z,88.40
2023-01-11T17:06:45.340Z,81.43
2023-01-11T17:08:27.648Z,74.45
2023-01-11T17:09:49.821Z,82.03
2023-01-11T17:11:41.723Z,91.72
2023-01-11T17:13:38.379Z,103.78
2023-01-11T17:15:00.055Z,118.57
2023-01-11T17:16:32.388Z,115.82
2023-01-11T17:17:54.518Z,106.65
2023-01-11T17:19:19.168Z,108.07
2023-01-11T17:20:41.885Z,115.47
2023-01-11T17:22:14.348Z,107.95
2023-01-11T17:23:39.444Z,105.93
2023-01-11T17:25:20.096Z,120.68
2023-01-11T17:26:49.936Z,128.52
2023-01-11T17:28:18.789Z,119.30
2023-01-11T17:29:42.954Z,112.30
2023-01-11T17:31:05.030Z,106.07
2023-01-11T17:32:44.033Z,101.68
2023-01-11T17:34:18.853Z,100.65
2023-01-11T17:35:42.332Z,95.25
2023-01-11T17:37:13.080Z,99.50
2023-01-11T17:38:35.574Z,99.57
2023-01-11T17:39:58.940Z,109.78
2023-01-11T17:41:40.244Z,104.78
2023-01-11T17:43:38.182Z,106.82
2023-01-11T17:45:15.801Z,119.68
2023-01-11T17:46:39.308Z,124.60
2023-01-11T17:48:12.676Z,140.50
2023-01-11T17:49:36.905Z,130.20
2023-01-11T17:51:04.572Z,128.68
2023-01-11T17:52:27.176Z,116.80
2023-01-11T17:53:50.669Z,122.97
2023-01-11T17:55:17.387Z,123.22
2023-01-11T17:56:41.921Z,135.77
2023-01-11T17:58:19.593Z,149.40
2023-01-11T17:59:41.804Z,165.15
2023-01-11T18:01:13.824Z,169.88
2023-01-11T18:02:40.247Z,160.90
2023-01-11T18:04:02.645Z,152.27
2023-01-11T18:05:29.099Z,143.50
2023-01-11T18:07:14.904Z,132.80
2023-01-11T18:08:36.987Z,144.60
2023-01-11T18:10:02.922Z,181.07
2023-01-11T18:11:36.112Z,182.75
2023-01-11T18:12:59.470Z,205.57
2023-01-11T18:14:31.984Z,175.57
2023-01-11T18:15:54.279Z,140.15
2023-01-11T18:17:36.910Z,129.10
2023-01-11T18:18:59.177Z,111.70
2023-01-11T18:20:32.534Z,100.47
2023-01-11T18:21:55.346Z,96.00
2023-01-11T18:23:20.729Z,89.68
2023-01-11T18:24:52.717Z,91.25
2023-01-11T18:26:28.896Z,95.05
2023-01-11T18:27:51.354Z,99.60
2023-01-11T18:29:35.701Z,93.97
2023-01-11T18:31:01.882Z,87.75
2023-01-11T18:32:24.928Z,83.63
2023-01-11T18:33:46.891Z,78.53
2023-01-11T18:35:20.119Z,74.65
2023-01-11T18:36:42.473Z,77.30
2023-01-11T18:38:26.739Z,72.18
2023-01-11T18:39:49.960Z,72.75
2023-01-11T18:41:32.605Z,66.60
2023-01-11T18:42:54.640Z,64.13
2023-01-11T18:44:16.417Z,63.47
2023-01-11T18:45:38.538Z,59.90
2023-01-11T18:47:00.499Z,62.20
2023-01-11T18:48:22.491Z,63.70
2023-01-11T18:49:44.934Z,63.85
2023-01-11T18:51:07.013Z,55.00
2023-01-11T18:52:29.600Z,58.38
2023-01-11T18:53:51.334Z,56.38
2023-01-11T18:55:14.869Z,55.90
2023-01-11T18:56:36.911Z,50.10
2023-01-11T18:57:59.181Z,51.03
2023-01-11T18:59:20.831Z,50.08
2023-01-11T19:00:43.125Z,48.88
2023-01-11T19:02:27.882Z,43.42
2023-01-11T19:03:50.236Z,42.13
2023-01-11T19:05:14.430Z,43.13
2023-01-11T19:06:36.344Z,37.55
2023-01-11T19:07:58.273Z,37.67
2023-01-11T19:09:20.060Z,37.67
2023-01-11T19:10:41.861Z,36.63
2023-01-11T19:12:04.204Z,39.38
2023-01-11T19:13:25.923Z,40.30
2023-01-11T19:14:47.845Z,41.88
2023-01-11T19:16:09.883Z,36.22
2023-01-11T19:17:32.862Z,30.92
2023-01-11T19:18:55.573Z,28.10
2023-01-11T19:20:17.634Z,30.00
2023-01-11T19:21:39.125Z,26.23
2023-01-11T19:23:01.197Z,25.50
2023-01-11T19:24:23.090Z,25.02
2023-01-11T19:25:45.324Z,23.17
2023-01-11T19:27:07.186Z,29.95
2023-01-11T19:28:29.777Z,26.17
2023-01-11T19:29:52.874Z,27.08
2023-01-11T19:31:14.611Z,27.13
2023-01-11T19:32:36.309Z,22.90
2023-01-11T19:33:57.986Z,23.65
2023-01-11T19:35:20.424Z,23.90
2023-01-11T19:36:42.655Z,24.05
2023-01-11T19:38:04.291Z,30.10
2023-01-11T19:39:27.438Z,33.13
2023-01-11T19:40:50.438Z,30.90
2023-01-11T19:42:12.921Z,29.90